^^
Station Historical Data
Daily Summary for January 23, 2017 Units:  Both    English   Metric
« Previous Day
Next Day »
Daily Weekly Monthly Yearly Custom
  High: Low: Average:
Temperature: 89.8 °F /  32.1 °C 64.8 °F /  18.2 °C 75.6 °F /  24.2 °C
Dew Point: 56.8 °F /  13.8 °C 50.5 °F /  10.3 °C 53.4 °F /  11.9 °C
Humidity: 65% 29% 48%
Wind Speed: 11.0mph /  17.7km/h - 2.9mph /  4.7km/h
Wind Gust: 16.0mph /  25.7km/h - -
Wind- - ESE
Pressure: 29.75 in /  1007.3 hPa 29.60 in /  1002.3 hPa -
Precipitation: 0.00 in /  0 mm    
Historical Graphs
 
 
Tabular Data for January 23, 2017
Time Temperature Dew Point Pressure Wind Wind Speed Wind Gust Humidity Rainfall Rate (Hourly) solar Conditions
00:00 72.7 °F /  22.6 °C 51.3 °F /  10.7 °C 29.75in /  1007.3hPa SSE 0.9mph /  1.4km/h 8.0mph /  12.9km/h 47% 0.00in /  0mm 0.0 W/m2
00:06 72.7 °F /  22.6 °C 51.3 °F /  10.7 °C 29.75in /  1007.3hPa SSE 2.9mph /  4.7km/h 9.0mph /  14.5km/h 47% 0.00in /  0mm 0.0 W/m2
00:13 72.3 °F /  22.4 °C 51.4 °F /  10.8 °C 29.75in /  1007.3hPa SE 4.9mph /  7.9km/h 9.0mph /  14.5km/h 48% 0.00in /  0mm 0.0 W/m2
00:19 72.1 °F /  22.3 °C 51.4 °F /  10.8 °C 29.75in /  1007.3hPa SSE 8.1mph /  13km/h 8.1mph /  13km/h 48% 0.00in /  0mm 0.0 W/m2
00:25 72.1 °F /  22.3 °C 51.4 °F /  10.8 °C 29.75in /  1007.3hPa SSE 6.0mph /  9.7km/h 7.0mph /  11.3km/h 48% 0.00in /  0mm 0.0 W/m2
00:31 72.0 °F /  22.2 °C 51.8 °F /  11 °C 29.75in /  1007.3hPa SE 10.1mph /  16.3km/h 13.0mph /  20.9km/h 49% 0.00in /  0mm 0.0 W/m2
00:37 71.8 °F /  22.1 °C 51.6 °F /  10.9 °C 29.74in /  1007hPa SE 4.9mph /  7.9km/h 11.0mph /  17.7km/h 49% 0.00in /  0mm 0.0 W/m2
00:43 71.8 °F /  22.1 °C 52.2 °F /  11.2 °C 29.74in /  1007hPa ESE 4.0mph /  6.4km/h 8.0mph /  12.9km/h 50% 0.00in /  0mm 0.0 W/m2
00:49 71.4 °F /  21.9 °C 51.8 °F /  11 °C 29.74in /  1007hPa SE 2.9mph /  4.7km/h 11.0mph /  17.7km/h 50% 0.00in /  0mm 0.0 W/m2
00:55 71.4 °F /  21.9 °C 51.8 °F /  11 °C 29.73in /  1006.7hPa SE 2.0mph /  3.2km/h 8.0mph /  12.9km/h 50% 0.00in /  0mm 0.0 W/m2
01:02 71.4 °F /  21.9 °C 51.8 °F /  11 °C 29.73in /  1006.7hPa SSE 2.0mph /  3.2km/h 9.0mph /  14.5km/h 50% 0.00in /  0mm 0.0 W/m2
01:08 71.2 °F /  21.8 °C 51.6 °F /  10.9 °C 29.73in /  1006.7hPa SE 0.9mph /  1.4km/h 7.0mph /  11.3km/h 50% 0.00in /  0mm 0.0 W/m2
01:14 71.2 °F /  21.8 °C 51.6 °F /  10.9 °C 29.73in /  1006.7hPa SSE 2.0mph /  3.2km/h 5.0mph /  8km/h 50% 0.00in /  0mm 0.0 W/m2
01:20 71.1 °F /  21.7 °C 52.0 °F /  11.1 °C 29.73in /  1006.7hPa SE 2.9mph /  4.7km/h 6.0mph /  9.7km/h 51% 0.00in /  0mm 0.0 W/m2
01:26 71.1 °F /  21.7 °C 52.0 °F /  11.1 °C 29.73in /  1006.7hPa South 2.0mph /  3.2km/h 7.0mph /  11.3km/h 51% 0.00in /  0mm 0.0 W/m2
01:32 71.1 °F /  21.7 °C 52.0 °F /  11.1 °C 29.72in /  1006.3hPa South 6.9mph /  11.1km/h 9.0mph /  14.5km/h 51% 0.00in /  0mm 0.0 W/m2
01:38 70.9 °F /  21.6 °C 51.8 °F /  11 °C 29.72in /  1006.3hPa SSE 4.0mph /  6.4km/h 6.0mph /  9.7km/h 51% 0.00in /  0mm 0.0 W/m2
01:44 70.9 °F /  21.6 °C 52.3 °F /  11.3 °C 29.72in /  1006.3hPa South 2.0mph /  3.2km/h 8.0mph /  12.9km/h 52% 0.00in /  0mm 0.0 W/m2
01:50 70.5 °F /  21.4 °C 52.0 °F /  11.1 °C 29.72in /  1006.3hPa South 6.9mph /  11.1km/h 10.0mph /  16.1km/h 52% 0.00in /  0mm 0.0 W/m2
01:57 70.5 °F /  21.4 °C 52.5 °F /  11.4 °C 29.72in /  1006.3hPa ESE 2.0mph /  3.2km/h 7.0mph /  11.3km/h 53% 0.00in /  0mm 0.0 W/m2
02:03 70.3 °F /  21.3 °C 52.3 °F /  11.3 °C 29.72in /  1006.3hPa South 0.9mph /  1.4km/h 5.0mph /  8km/h 53% 0.00in /  0mm 0.0 W/m2
02:09 70.2 °F /  21.2 °C 52.2 °F /  11.2 °C 29.72in /  1006.3hPa SSE 4.9mph /  7.9km/h 8.0mph /  12.9km/h 53% 0.00in /  0mm 0.0 W/m2
02:15 70.2 °F /  21.2 °C 52.2 °F /  11.2 °C 29.72in /  1006.3hPa SSE 6.0mph /  9.7km/h 10.0mph /  16.1km/h 53% 0.00in /  0mm 0.0 W/m2
02:21 70.0 °F /  21.1 °C 52.5 °F /  11.4 °C 29.72in /  1006.3hPa SE 8.1mph /  13km/h 10.0mph /  16.1km/h 54% 0.00in /  0mm 0.0 W/m2
02:27 69.6 °F /  20.9 °C 52.7 °F /  11.5 °C 29.71in /  1006hPa SSE 4.0mph /  6.4km/h 9.0mph /  14.5km/h 55% 0.00in /  0mm 0.0 W/m2
02:33 69.4 °F /  20.8 °C 52.5 °F /  11.4 °C 29.71in /  1006hPa SSE 2.9mph /  4.7km/h 7.0mph /  11.3km/h 55% 0.00in /  0mm 0.0 W/m2
02:40 69.3 °F /  20.7 °C 52.3 °F /  11.3 °C 29.71in /  1006hPa SSE 8.1mph /  13km/h 8.1mph /  13km/h 55% 0.00in /  0mm 0.0 W/m2
02:46 69.1 °F /  20.6 °C 52.7 °F /  11.5 °C 29.71in /  1006hPa South 4.9mph /  7.9km/h 9.0mph /  14.5km/h 56% 0.00in /  0mm 0.0 W/m2
02:52 68.9 °F /  20.5 °C 52.5 °F /  11.4 °C 29.71in /  1006hPa SSE 0.9mph /  1.4km/h 5.0mph /  8km/h 56% 0.00in /  0mm 0.0 W/m2
02:58 68.7 °F /  20.4 °C 52.3 °F /  11.3 °C 29.71in /  1006hPa SE 4.0mph /  6.4km/h 5.0mph /  8km/h 56% 0.00in /  0mm 0.0 W/m2
03:04 68.7 °F /  20.4 °C 52.3 °F /  11.3 °C 29.71in /  1006hPa Calm   3.0mph /  4.8km/h 56% 0.00in /  0mm 0.0 W/m2
03:10 68.7 °F /  20.4 °C 52.3 °F /  11.3 °C 29.71in /  1006hPa SSE 4.0mph /  6.4km/h 5.0mph /  8km/h 56% 0.00in /  0mm 0.0 W/m2
03:16 68.7 °F /  20.4 °C 52.3 °F /  11.3 °C 29.71in /  1006hPa SE 4.0mph /  6.4km/h 8.0mph /  12.9km/h 56% 0.00in /  0mm 0.0 W/m2
03:22 68.7 °F /  20.4 °C 52.3 °F /  11.3 °C 29.71in /  1006hPa SE 4.0mph /  6.4km/h 8.0mph /  12.9km/h 56% 0.00in /  0mm 0.0 W/m2
03:29 68.7 °F /  20.4 °C 52.3 °F /  11.3 °C 29.71in /  1006hPa ESE 2.9mph /  4.7km/h 7.0mph /  11.3km/h 56% 0.00in /  0mm 0.0 W/m2
03:35 68.9 °F /  20.5 °C 52.0 °F /  11.1 °C 29.71in /  1006hPa SE 2.9mph /  4.7km/h 8.0mph /  12.9km/h 55% 0.00in /  0mm 0.0 W/m2
03:41 68.7 °F /  20.4 °C 52.3 °F /  11.3 °C 29.71in /  1006hPa SE 4.0mph /  6.4km/h 8.0mph /  12.9km/h 56% 0.00in /  0mm 0.0 W/m2
03:47 68.7 °F /  20.4 °C 52.3 °F /  11.3 °C 29.70in /  1005.6hPa SSE 2.9mph /  4.7km/h 6.0mph /  9.7km/h 56% 0.00in /  0mm 0.0 W/m2
03:53 68.7 °F /  20.4 °C 52.3 °F /  11.3 °C 29.70in /  1005.6hPa SE 4.0mph /  6.4km/h 4.0mph /  6.4km/h 56% 0.00in /  0mm 0.0 W/m2
03:59 68.7 °F /  20.4 °C 52.3 °F /  11.3 °C 29.70in /  1005.6hPa ESE 4.9mph /  7.9km/h 5.0mph /  8km/h 56% 0.00in /  0mm 0.0 W/m2
04:05 68.5 °F /  20.3 °C 52.2 °F /  11.2 °C 29.70in /  1005.6hPa ESE 0.9mph /  1.4km/h 5.0mph /  8km/h 56% 0.00in /  0mm 0.0 W/m2
04:12 68.5 °F /  20.3 °C 52.7 °F /  11.5 °C 29.70in /  1005.6hPa SE 0.9mph /  1.4km/h 2.0mph /  3.2km/h 57% 0.00in /  0mm 0.0 W/m2
04:18 68.4 °F /  20.2 °C 52.5 °F /  11.4 °C 29.70in /  1005.6hPa SE 2.9mph /  4.7km/h 3.0mph /  4.8km/h 57% 0.00in /  0mm 0.0 W/m2
04:24 68.2 °F /  20.1 °C 52.3 °F /  11.3 °C 29.70in /  1005.6hPa Calm   1.0mph /  1.6km/h 57% 0.00in /  0mm 0.0 W/m2
04:30 68.2 °F /  20.1 °C 52.9 °F /  11.6 °C 29.70in /  1005.6hPa Calm   1.0mph /  1.6km/h 58% 0.00in /  0mm 0.0 W/m2
04:36 67.8 °F /  19.9 °C 52.5 °F /  11.4 °C 29.71in /  1006hPa Calm   1.0mph /  1.6km/h 58% 0.00in /  0mm 0.0 W/m2
04:42 67.6 °F /  19.8 °C 52.9 °F /  11.6 °C 29.70in /  1005.6hPa Calm   1.0mph /  1.6km/h 59% 0.00in /  0mm 0.0 W/m2
04:48 67.5 °F /  19.7 °C 52.7 °F /  11.5 °C 29.70in /  1005.6hPa Calm     59% 0.00in /  0mm 0.0 W/m2
04:54 67.3 °F /  19.6 °C 52.9 °F /  11.6 °C 29.70in /  1005.6hPa Calm   1.0mph /  1.6km/h 60% 0.00in /  0mm 0.0 W/m2
05:01 66.9 °F /  19.4 °C 53.1 °F /  11.7 °C 29.71in /  1006hPa Calm   2.0mph /  3.2km/h 61% 0.00in /  0mm 0.0 W/m2
05:07 66.7 °F /  19.3 °C 52.9 °F /  11.6 °C 29.70in /  1005.6hPa Calm   3.0mph /  4.8km/h 61% 0.00in /  0mm 0.0 W/m2
05:13 66.7 °F /  19.3 °C 52.9 °F /  11.6 °C 29.70in /  1005.6hPa Calm     61% 0.00in /  0mm 0.0 W/m2
05:19 66.6 °F /  19.2 °C 52.7 °F /  11.5 °C 29.71in /  1006hPa Calm     61% 0.00in /  0mm 0.0 W/m2
05:25 66.4 °F /  19.1 °C 52.9 °F /  11.6 °C 29.71in /  1006hPa Calm     62% 0.00in /  0mm 0.0 W/m2
05:31 66.0 °F /  18.9 °C 52.7 °F /  11.5 °C 29.71in /  1006hPa Calm     62% 0.00in /  0mm 0.0 W/m2
05:37 65.8 °F /  18.8 °C 52.9 °F /  11.6 °C 29.71in /  1006hPa Calm     63% 0.00in /  0mm 0.0 W/m2
05:43 65.7 °F /  18.7 °C 52.7 °F /  11.5 °C 29.72in /  1006.3hPa Calm   2.0mph /  3.2km/h 63% 0.00in /  0mm 0.0 W/m2
05:50 65.5 °F /  18.6 °C 53.1 °F /  11.7 °C 29.72in /  1006.3hPa Calm   3.0mph /  4.8km/h 64% 0.00in /  0mm 0.0 W/m2
05:56 65.5 °F /  18.6 °C 53.1 °F /  11.7 °C 29.72in /  1006.3hPa Calm   4.0mph /  6.4km/h 64% 0.00in /  0mm 0.0 W/m2
06:02 65.5 °F /  18.6 °C 52.5 °F /  11.4 °C 29.72in /  1006.3hPa Calm     63% 0.00in /  0mm 0.0 W/m2
06:08 65.5 °F /  18.6 °C 52.5 °F /  11.4 °C 29.72in /  1006.3hPa Calm     63% 0.00in /  0mm 0.0 W/m2
06:14 65.3 °F /  18.5 °C 52.9 °F /  11.6 °C 29.72in /  1006.3hPa Calm     64% 0.00in /  0mm 0.0 W/m2
06:20 65.1 °F /  18.4 °C 52.7 °F /  11.5 °C 29.72in /  1006.3hPa Calm     64% 0.00in /  0mm 0.0 W/m2
06:26 64.9 °F /  18.3 °C 52.5 °F /  11.4 °C 29.72in /  1006.3hPa Calm   4.0mph /  6.4km/h 64% 0.00in /  0mm 0.0 W/m2
06:32 64.8 °F /  18.2 °C 52.3 °F /  11.3 °C 29.73in /  1006.7hPa Calm   1.0mph /  1.6km/h 64% 0.00in /  0mm 7.0 W/m2
06:39 64.8 °F /  18.2 °C 52.3 °F /  11.3 °C 29.73in /  1006.7hPa Calm   2.0mph /  3.2km/h 64% 0.00in /  0mm 11.0 W/m2
06:45 64.9 °F /  18.3 °C 52.5 °F /  11.4 °C 29.73in /  1006.7hPa ESE 0.9mph /  1.4km/h 3.0mph /  4.8km/h 64% 0.00in /  0mm 12.0 W/m2
06:51 65.1 °F /  18.4 °C 52.7 °F /  11.5 °C 29.73in /  1006.7hPa East 0.9mph /  1.4km/h 1.0mph /  1.6km/h 64% 0.00in /  0mm 16.0 W/m2
06:57 65.1 °F /  18.4 °C 53.1 °F /  11.7 °C 29.73in /  1006.7hPa Calm   2.0mph /  3.2km/h 65% 0.00in /  0mm 18.0 W/m2
07:03 65.1 °F /  18.4 °C 53.1 °F /  11.7 °C 29.73in /  1006.7hPa Calm     65% 0.00in /  0mm 21.0 W/m2
07:09 65.1 °F /  18.4 °C 53.1 °F /  11.7 °C 29.74in /  1007hPa Calm   3.0mph /  4.8km/h 65% 0.00in /  0mm 23.0 W/m2
07:15 65.5 °F /  18.6 °C 53.4 °F /  11.9 °C 29.74in /  1007hPa SE 0.9mph /  1.4km/h 3.0mph /  4.8km/h 65% 0.00in /  0mm 25.0 W/m2
07:22 65.8 °F /  18.8 °C 53.8 °F /  12.1 °C 29.74in /  1007hPa Calm   1.0mph /  1.6km/h 65% 0.00in /  0mm 26.0 W/m2
07:28 66.6 °F /  19.2 °C 53.6 °F /  12 °C 29.75in /  1007.3hPa Calm   3.0mph /  4.8km/h 63% 0.00in /  0mm 26.0 W/m2
07:34 67.3 °F /  19.6 °C 53.8 °F /  12.1 °C 29.75in /  1007.3hPa SE 2.0mph /  3.2km/h 3.0mph /  4.8km/h 62% 0.00in /  0mm 28.0 W/m2
07:40 67.8 °F /  19.9 °C 54.0 °F /  12.2 °C 29.75in /  1007.3hPa ESE 4.0mph /  6.4km/h 4.0mph /  6.4km/h 61% 0.00in /  0mm 40.0 W/m2
07:46 68.4 °F /  20.2 °C 54.0 °F /  12.2 °C 29.75in /  1007.3hPa ESE 2.9mph /  4.7km/h 6.0mph /  9.7km/h 60% 0.00in /  0mm 265.0 W/m2
07:52 69.1 °F /  20.6 °C 54.1 °F /  12.3 °C 29.75in /  1007.3hPa ESE 0.9mph /  1.4km/h 7.0mph /  11.3km/h 59% 0.00in /  0mm 294.0 W/m2
07:58 69.8 °F /  21 °C 54.3 °F /  12.4 °C 29.75in /  1007.3hPa East 2.0mph /  3.2km/h 8.0mph /  12.9km/h 58% 0.00in /  0mm 318.0 W/m2
08:04 70.7 °F /  21.5 °C 54.3 °F /  12.4 °C 29.75in /  1007.3hPa ENE 2.0mph /  3.2km/h 6.0mph /  9.7km/h 56% 0.00in /  0mm 343.0 W/m2
08:11 71.4 °F /  21.9 °C 54.5 °F /  12.5 °C 29.75in /  1007.3hPa East 0.9mph /  1.4km/h 4.0mph /  6.4km/h 55% 0.00in /  0mm 367.0 W/m2
08:17 72.1 °F /  22.3 °C 54.5 °F /  12.5 °C 29.75in /  1007.3hPa SE 2.0mph /  3.2km/h 9.0mph /  14.5km/h 54% 0.00in /  0mm 392.0 W/m2
08:23 72.9 °F /  22.7 °C 54.7 °F /  12.6 °C 29.75in /  1007.3hPa SSE 2.9mph /  4.7km/h 3.0mph /  4.8km/h 53% 0.00in /  0mm 418.0 W/m2
08:29 73.2 °F /  22.9 °C 54.5 °F /  12.5 °C 29.75in /  1007.3hPa South 2.9mph /  4.7km/h 9.0mph /  14.5km/h 52% 0.00in /  0mm 443.0 W/m2
08:35 73.2 °F /  22.9 °C 54.5 °F /  12.5 °C 29.75in /  1007.3hPa ESE 0.9mph /  1.4km/h 9.0mph /  14.5km/h 52% 0.00in /  0mm 468.0 W/m2
08:41 73.2 °F /  22.9 °C 54.5 °F /  12.5 °C 29.75in /  1007.3hPa SSE 4.0mph /  6.4km/h 10.0mph /  16.1km/h 52% 0.00in /  0mm 492.0 W/m2
08:47 73.8 °F /  23.2 °C 54.5 °F /  12.5 °C 29.75in /  1007.3hPa East 2.0mph /  3.2km/h 12.0mph /  19.3km/h 51% 0.00in /  0mm 513.0 W/m2
08:54 74.3 °F /  23.5 °C 55.0 °F /  12.8 °C 29.75in /  1007.3hPa NE 4.0mph /  6.4km/h 8.0mph /  12.9km/h 51% 0.00in /  0mm 538.0 W/m2
09:00 74.8 °F /  23.8 °C 55.6 °F /  13.1 °C 29.75in /  1007.3hPa East 4.9mph /  7.9km/h 8.0mph /  12.9km/h 51% 0.00in /  0mm 561.0 W/m2
09:06 74.8 °F /  23.8 °C 55.0 °F /  12.8 °C 29.75in /  1007.3hPa ENE 2.9mph /  4.7km/h 10.0mph /  16.1km/h 50% 0.00in /  0mm 585.0 W/m2
09:08 74.8 °F /  23.8 °C 55.0 °F /  12.8 °C 29.75in /  1007.3hPa East 6.0mph /  9.7km/h 9.0mph /  14.5km/h 50% 0.00in /  0mm 592.0 W/m2
09:14 75.2 °F /  24 °C 55.8 °F /  13.2 °C 29.74in /  1007hPa NNW 0.9mph /  1.4km/h 7.0mph /  11.3km/h 51% 0.00in /  0mm 613.0 W/m2
09:20 75.6 °F /  24.2 °C 56.1 °F /  13.4 °C 29.75in /  1007.3hPa NNE 2.9mph /  4.7km/h 8.0mph /  12.9km/h 51% 0.00in /  0mm 636.0 W/m2
09:26 75.7 °F /  24.3 °C 55.8 °F /  13.2 °C 29.75in /  1007.3hPa East 2.0mph /  3.2km/h 6.0mph /  9.7km/h 50% 0.00in /  0mm 659.0 W/m2
09:33 75.9 °F /  24.4 °C 55.9 °F /  13.3 °C 29.74in /  1007hPa NE 4.9mph /  7.9km/h 9.0mph /  14.5km/h 50% 0.00in /  0mm 680.0 W/m2
09:38 76.5 °F /  24.7 °C 56.5 °F /  13.6 °C 29.74in /  1007hPa SE 2.9mph /  4.7km/h 12.0mph /  19.3km/h 50% 0.00in /  0mm 698.0 W/m2
09:44 76.5 °F /  24.7 °C 56.5 °F /  13.6 °C 29.75in /  1007.3hPa ENE 8.9mph /  14.3km/h 9.0mph /  14.5km/h 50% 0.00in /  0mm 728.0 W/m2
09:50 76.8 °F /  24.9 °C 56.3 °F /  13.5 °C 29.74in /  1007hPa NE 11.0mph /  17.7km/h 13.0mph /  20.9km/h 49% 0.00in /  0mm 759.0 W/m2
09:57 77.4 °F /  25.2 °C 56.1 °F /  13.4 °C 29.74in /  1007hPa NE 0.9mph /  1.4km/h 8.0mph /  12.9km/h 48% 0.00in /  0mm 816.0 W/m2
10:03 77.5 °F /  25.3 °C 56.3 °F /  13.5 °C 29.74in /  1007hPa East 8.9mph /  14.3km/h 10.0mph /  16.1km/h 48% 0.00in /  0mm 842.0 W/m2
10:09 77.5 °F /  25.3 °C 55.8 °F /  13.2 °C 29.74in /  1007hPa ENE 6.9mph /  11.1km/h 10.0mph /  16.1km/h 47% 0.00in /  0mm 853.0 W/m2
10:15 78.1 °F /  25.6 °C 56.8 °F /  13.8 °C 29.74in /  1007hPa ENE 6.9mph /  11.1km/h 8.0mph /  12.9km/h 48% 0.00in /  0mm 900.0 W/m2
10:21 78.1 °F /  25.6 °C 56.3 °F /  13.5 °C 29.74in /  1007hPa ESE 4.0mph /  6.4km/h 8.0mph /  12.9km/h 47% 0.00in /  0mm 900.0 W/m2
10:27 78.3 °F /  25.7 °C 56.3 °F /  13.5 °C 29.73in /  1006.7hPa NNE 6.0mph /  9.7km/h 8.0mph /  12.9km/h 47% 0.00in /  0mm 221.0 W/m2
10:33 78.3 °F /  25.7 °C 55.8 °F /  13.2 °C 29.74in /  1007hPa South 0.9mph /  1.4km/h 12.0mph /  19.3km/h 46% 0.00in /  0mm 183.0 W/m2
10:39 77.7 °F /  25.4 °C 55.9 °F /  13.3 °C 29.74in /  1007hPa ENE 4.0mph /  6.4km/h 8.0mph /  12.9km/h 47% 0.00in /  0mm 230.0 W/m2
10:45 77.7 °F /  25.4 °C 55.9 °F /  13.3 °C 29.73in /  1006.7hPa North 4.9mph /  7.9km/h 8.0mph /  12.9km/h 47% 0.00in /  0mm 1021.0 W/m2
10:51 77.7 °F /  25.4 °C 55.2 °F /  12.9 °C 29.73in /  1006.7hPa North 6.9mph /  11.1km/h 10.0mph /  16.1km/h 46% 0.00in /  0mm 264.0 W/m2
10:57 78.1 °F /  25.6 °C 55.6 °F /  13.1 °C 29.73in /  1006.7hPa NE 6.9mph /  11.1km/h 7.0mph /  11.3km/h 46% 0.00in /  0mm 1028.0 W/m2
11:03 79.0 °F /  26.1 °C 55.8 °F /  13.2 °C 29.73in /  1006.7hPa NE 8.1mph /  13km/h 11.0mph /  17.7km/h 45% 0.00in /  0mm 1046.0 W/m2
11:09 79.9 °F /  26.6 °C 55.4 °F /  13 °C 29.73in /  1006.7hPa SSE 4.0mph /  6.4km/h 11.0mph /  17.7km/h 43% 0.00in /  0mm 1067.0 W/m2
11:15 80.8 °F /  27.1 °C 55.6 °F /  13.1 °C 29.72in /  1006.3hPa ESE 2.0mph /  3.2km/h 10.0mph /  16.1km/h 42% 0.00in /  0mm 1137.0 W/m2
11:21 81.1 °F /  27.3 °C 56.5 °F /  13.6 °C 29.72in /  1006.3hPa ESE 6.0mph /  9.7km/h 9.0mph /  14.5km/h 43% 0.00in /  0mm 1171.0 W/m2
11:27 81.5 °F /  27.5 °C 55.6 °F /  13.1 °C 29.72in /  1006.3hPa SSE 4.9mph /  7.9km/h 10.0mph /  16.1km/h 41% 0.00in /  0mm 251.0 W/m2
11:33 81.1 °F /  27.3 °C 55.9 °F /  13.3 °C 29.72in /  1006.3hPa East 4.9mph /  7.9km/h 16.0mph /  25.7km/h 42% 0.00in /  0mm 1113.0 W/m2
11:39 81.1 °F /  27.3 °C 55.9 °F /  13.3 °C 29.72in /  1006.3hPa NNE 6.9mph /  11.1km/h 16.0mph /  25.7km/h 42% 0.00in /  0mm 1136.0 W/m2
11:45 81.3 °F /  27.4 °C 55.4 °F /  13 °C 29.71in /  1006hPa East 4.9mph /  7.9km/h 7.0mph /  11.3km/h 41% 0.00in /  0mm 1118.0 W/m2
11:51 82.0 °F /  27.8 °C 55.4 °F /  13 °C 29.71in /  1006hPa ENE 2.9mph /  4.7km/h 9.0mph /  14.5km/h 40% 0.00in /  0mm 1165.0 W/m2
11:57 82.8 °F /  28.2 °C 54.5 °F /  12.5 °C 29.71in /  1006hPa East 2.0mph /  3.2km/h 13.0mph /  20.9km/h 38% 0.00in /  0mm 1199.0 W/m2
12:03 82.8 °F /  28.2 °C 55.2 °F /  12.9 °C 29.70in /  1005.6hPa NNE 4.0mph /  6.4km/h 8.0mph /  12.9km/h 39% 0.00in /  0mm 1208.0 W/m2
12:09 82.8 °F /  28.2 °C 54.5 °F /  12.5 °C 29.71in /  1006hPa NE 8.9mph /  14.3km/h 10.0mph /  16.1km/h 38% 0.00in /  0mm 260.0 W/m2
12:15 82.9 °F /  28.3 °C 55.4 °F /  13 °C 29.70in /  1005.6hPa East 8.9mph /  14.3km/h 15.0mph /  24.1km/h 39% 0.00in /  0mm 1162.0 W/m2
12:21 83.7 °F /  28.7 °C 55.4 °F /  13 °C 29.70in /  1005.6hPa ENE 0.9mph /  1.4km/h 8.0mph /  12.9km/h 38% 0.00in /  0mm 1139.0 W/m2
12:27 84.0 °F /  28.9 °C 53.4 °F /  11.9 °C 29.70in /  1005.6hPa ENE 6.9mph /  11.1km/h 10.0mph /  16.1km/h 35% 0.00in /  0mm 1172.0 W/m2
12:33 84.6 °F /  29.2 °C 53.1 °F /  11.7 °C 29.70in /  1005.6hPa ESE 2.0mph /  3.2km/h 11.0mph /  17.7km/h 34% 0.00in /  0mm 1230.0 W/m2
12:39 84.7 °F /  29.3 °C 54.1 °F /  12.3 °C 29.69in /  1005.3hPa South 4.0mph /  6.4km/h 12.0mph /  19.3km/h 35% 0.00in /  0mm 1201.0 W/m2
12:45 84.9 °F /  29.4 °C 53.4 °F /  11.9 °C 29.69in /  1005.3hPa SE 2.9mph /  4.7km/h 12.0mph /  19.3km/h 34% 0.00in /  0mm 1252.0 W/m2
12:51 85.3 °F /  29.6 °C 53.8 °F /  12.1 °C 29.69in /  1005.3hPa SE 6.0mph /  9.7km/h 13.0mph /  20.9km/h 34% 0.00in /  0mm 1280.0 W/m2
12:57 84.9 °F /  29.4 °C 53.4 °F /  11.9 °C 29.69in /  1005.3hPa ENE 4.0mph /  6.4km/h 8.0mph /  12.9km/h 34% 0.00in /  0mm 243.0 W/m2
13:03 85.3 °F /  29.6 °C 54.5 °F /  12.5 °C 29.69in /  1005.3hPa NNE 4.0mph /  6.4km/h 10.0mph /  16.1km/h 35% 0.00in /  0mm 1187.0 W/m2
13:09 85.6 °F /  29.8 °C 54.0 °F /  12.2 °C 29.68in /  1005hPa ESE 4.0mph /  6.4km/h 14.0mph /  22.5km/h 34% 0.00in /  0mm 1190.0 W/m2
13:15 85.6 °F /  29.8 °C 53.2 °F /  11.8 °C 29.67in /  1004.6hPa NE 6.0mph /  9.7km/h 7.0mph /  11.3km/h 33% 0.00in /  0mm 1125.0 W/m2
13:21 86.2 °F /  30.1 °C 52.9 °F /  11.6 °C 29.67in /  1004.6hPa SE 2.0mph /  3.2km/h 4.0mph /  6.4km/h 32% 0.00in /  0mm 262.0 W/m2
13:27 86.0 °F /  30 °C 53.6 °F /  12 °C 29.68in /  1005hPa SE 6.0mph /  9.7km/h 9.0mph /  14.5km/h 33% 0.00in /  0mm 1208.0 W/m2
13:33 85.6 °F /  29.8 °C 54.0 °F /  12.2 °C 29.67in /  1004.6hPa North 4.0mph /  6.4km/h 12.0mph /  19.3km/h 34% 0.00in /  0mm 255.0 W/m2
13:39 85.5 °F /  29.7 °C 54.7 °F /  12.6 °C 29.67in /  1004.6hPa ESE 8.9mph /  14.3km/h 13.0mph /  20.9km/h 35% 0.00in /  0mm 253.0 W/m2
13:45 85.1 °F /  29.5 °C 54.3 °F /  12.4 °C 29.67in /  1004.6hPa NE 2.0mph /  3.2km/h 10.0mph /  16.1km/h 35% 0.00in /  0mm 1262.0 W/m2
13:51 85.5 °F /  29.7 °C 54.0 °F /  12.2 °C 29.66in /  1004.3hPa SE 0.9mph /  1.4km/h 6.0mph /  9.7km/h 34% 0.00in /  0mm 1181.0 W/m2
13:57 86.2 °F /  30.1 °C 53.8 °F /  12.1 °C 29.66in /  1004.3hPa NE 4.0mph /  6.4km/h 8.0mph /  12.9km/h 33% 0.00in /  0mm 237.0 W/m2
14:03 86.2 °F /  30.1 °C 54.5 °F /  12.5 °C 29.66in /  1004.3hPa ESE 6.9mph /  11.1km/h 12.0mph /  19.3km/h 34% 0.00in /  0mm 253.0 W/m2
14:09 85.1 °F /  29.5 °C 53.6 °F /  12 °C 29.66in /  1004.3hPa SE 2.9mph /  4.7km/h 9.0mph /  14.5km/h 34% 0.00in /  0mm 336.0 W/m2
14:15 84.7 °F /  29.3 °C 54.1 °F /  12.3 °C 29.66in /  1004.3hPa East 8.9mph /  14.3km/h 12.0mph /  19.3km/h 35% 0.00in /  0mm 1232.0 W/m2
14:21 85.3 °F /  29.6 °C 54.5 °F /  12.5 °C 29.66in /  1004.3hPa ESE 0.9mph /  1.4km/h 8.0mph /  12.9km/h 35% 0.00in /  0mm 1102.0 W/m2
14:27 86.4 °F /  30.2 °C 53.8 °F /  12.1 °C 29.65in /  1003.9hPa NE 0.9mph /  1.4km/h 10.0mph /  16.1km/h 33% 0.00in /  0mm 1095.0 W/m2
14:33 86.7 °F /  30.4 °C 54.1 °F /  12.3 °C 29.66in /  1004.3hPa NNE 6.0mph /  9.7km/h 12.0mph /  19.3km/h 33% 0.00in /  0mm 1099.0 W/m2
14:39 87.3 °F /  30.7 °C 52.9 °F /  11.6 °C 29.65in /  1003.9hPa ENE 4.9mph /  7.9km/h 10.0mph /  16.1km/h 31% 0.00in /  0mm 1118.0 W/m2
14:45 87.3 °F /  30.7 °C 52.9 °F /  11.6 °C 29.65in /  1003.9hPa NE 4.9mph /  7.9km/h 9.0mph /  14.5km/h 31% 0.00in /  0mm 243.0 W/m2
14:51 86.9 °F /  30.5 °C 53.4 °F /  11.9 °C 29.65in /  1003.9hPa ESE 2.0mph /  3.2km/h 9.0mph /  14.5km/h 32% 0.00in /  0mm 302.0 W/m2
14:57 86.7 °F /  30.4 °C 53.4 °F /  11.9 °C 29.65in /  1003.9hPa WNW 0.9mph /  1.4km/h 7.0mph /  11.3km/h 32% 0.00in /  0mm 1025.0 W/m2
15:03 87.4 °F /  30.8 °C 54.0 °F /  12.2 °C 29.65in /  1003.9hPa ENE 0.9mph /  1.4km/h 6.0mph /  9.7km/h 32% 0.00in /  0mm 1004.0 W/m2
15:09 88.5 °F /  31.4 °C 54.0 °F /  12.2 °C 29.64in /  1003.6hPa East 10.1mph /  16.3km/h 12.0mph /  19.3km/h 31% 0.00in /  0mm 1028.0 W/m2
15:15 89.1 °F /  31.7 °C 53.6 °F /  12 °C 29.64in /  1003.6hPa ENE 2.9mph /  4.7km/h 7.0mph /  11.3km/h 30% 0.00in /  0mm 981.0 W/m2
15:21 89.8 °F /  32.1 °C 54.1 °F /  12.3 °C 29.64in /  1003.6hPa NE 4.9mph /  7.9km/h 10.0mph /  16.1km/h 30% 0.00in /  0mm 998.0 W/m2
15:27 89.8 °F /  32.1 °C 54.1 °F /  12.3 °C 29.63in /  1003.3hPa East 8.1mph /  13km/h 13.0mph /  20.9km/h 30% 0.00in /  0mm 1007.0 W/m2
15:33 89.6 °F /  32 °C 53.1 °F /  11.7 °C 29.63in /  1003.3hPa ESE 6.0mph /  9.7km/h 11.0mph /  17.7km/h 29% 0.00in /  0mm 218.0 W/m2
15:39 89.2 °F /  31.8 °C 52.9 °F /  11.6 °C 29.63in /  1003.3hPa ENE 4.9mph /  7.9km/h 11.0mph /  17.7km/h 29% 0.00in /  0mm 930.0 W/m2
15:45 89.4 °F /  31.9 °C 53.1 °F /  11.7 °C 29.63in /  1003.3hPa NNE 2.9mph /  4.7km/h 10.0mph /  16.1km/h 29% 0.00in /  0mm 977.0 W/m2
15:51 89.8 °F /  32.1 °C 53.2 °F /  11.8 °C 29.62in /  1002.9hPa NE 6.9mph /  11.1km/h 8.0mph /  12.9km/h 29% 0.00in /  0mm 889.0 W/m2
19:02 84.7 °F /  29.3 °C 53.2 °F /  11.8 °C 29.60in /  1002.3hPa East 2.0mph /  3.2km/h 8.0mph /  12.9km/h 34% 0.00in /  0mm 23.0 W/m2
19:08 84.0 °F /  28.9 °C 53.4 °F /  11.9 °C 29.61in /  1002.6hPa Calm   4.0mph /  6.4km/h 35% 0.00in /  0mm 14.0 W/m2
19:14 83.7 °F /  28.7 °C 53.1 °F /  11.7 °C 29.61in /  1002.6hPa East 2.0mph /  3.2km/h 6.0mph /  9.7km/h 35% 0.00in /  0mm 9.0 W/m2
19:20 83.1 °F /  28.4 °C 51.8 °F /  11 °C 29.62in /  1002.9hPa East 6.0mph /  9.7km/h 6.0mph /  9.7km/h 34% 0.00in /  0mm 7.0 W/m2
19:26 82.8 °F /  28.2 °C 52.3 °F /  11.3 °C 29.62in /  1002.9hPa NE 0.9mph /  1.4km/h 3.0mph /  4.8km/h 35% 0.00in /  0mm 5.0 W/m2
19:32 82.6 °F /  28.1 °C 52.2 °F /  11.2 °C 29.62in /  1002.9hPa SE 4.0mph /  6.4km/h 5.0mph /  8km/h 35% 0.00in /  0mm 5.0 W/m2
19:39 82.2 °F /  27.9 °C 51.8 °F /  11 °C 29.62in /  1002.9hPa East 4.0mph /  6.4km/h 4.0mph /  6.4km/h 35% 0.00in /  0mm 0.0 W/m2
19:45 82.0 °F /  27.8 °C 51.6 °F /  10.9 °C 29.62in /  1002.9hPa ESE 0.9mph /  1.4km/h 1.0mph /  1.6km/h 35% 0.00in /  0mm 0.0 W/m2
19:51 81.7 °F /  27.6 °C 52.2 °F /  11.2 °C 29.62in /  1002.9hPa Calm   3.0mph /  4.8km/h 36% 0.00in /  0mm 0.0 W/m2
19:57 81.3 °F /  27.4 °C 51.8 °F /  11 °C 29.63in /  1003.3hPa East 2.0mph /  3.2km/h 2.0mph /  3.2km/h 36% 0.00in /  0mm 0.0 W/m2
20:03 81.1 °F /  27.3 °C 51.6 °F /  10.9 °C 29.63in /  1003.3hPa Calm   2.0mph /  3.2km/h 36% 0.00in /  0mm 0.0 W/m2
20:09 81.0 °F /  27.2 °C 51.4 °F /  10.8 °C 29.63in /  1003.3hPa Calm   2.0mph /  3.2km/h 36% 0.00in /  0mm 0.0 W/m2
20:15 80.6 °F /  27 °C 51.3 °F /  10.7 °C 29.63in /  1003.3hPa Calm   2.0mph /  3.2km/h 36% 0.00in /  0mm 0.0 W/m2
20:21 80.4 °F /  26.9 °C 51.1 °F /  10.6 °C 29.64in /  1003.6hPa East 2.0mph /  3.2km/h 2.0mph /  3.2km/h 36% 0.00in /  0mm 0.0 W/m2
20:27 80.1 °F /  26.7 °C 50.7 °F /  10.4 °C 29.64in /  1003.6hPa Calm   2.0mph /  3.2km/h 36% 0.00in /  0mm 0.0 W/m2
20:33 79.9 °F /  26.6 °C 50.5 °F /  10.3 °C 29.65in /  1003.9hPa Calm   4.0mph /  6.4km/h 36% 0.00in /  0mm 0.0 W/m2
20:39 79.7 °F /  26.5 °C 51.1 °F /  10.6 °C 29.65in /  1003.9hPa Calm   2.0mph /  3.2km/h 37% 0.00in /  0mm 0.0 W/m2
20:45 79.5 °F /  26.4 °C 50.9 °F /  10.5 °C 29.65in /  1003.9hPa Calm   2.0mph /  3.2km/h 37% 0.00in /  0mm 0.0 W/m2
20:51 79.3 °F /  26.3 °C 50.7 °F /  10.4 °C 29.66in /  1004.3hPa ENE 2.0mph /  3.2km/h 3.0mph /  4.8km/h 37% 0.00in /  0mm 0.0 W/m2
20:57 79.2 °F /  26.2 °C 50.7 °F /  10.4 °C 29.66in /  1004.3hPa Calm   2.0mph /  3.2km/h 37% 0.00in /  0mm 0.0 W/m2
21:04 79.0 °F /  26.1 °C 50.5 °F /  10.3 °C 29.66in /  1004.3hPa Calm   2.0mph /  3.2km/h 37% 0.00in /  0mm 0.0 W/m2
21:10 78.6 °F /  25.9 °C 50.9 °F /  10.5 °C 29.66in /  1004.3hPa ENE 2.0mph /  3.2km/h 3.0mph /  4.8km/h 38% 0.00in /  0mm 0.0 W/m2
21:16 78.4 °F /  25.8 °C 50.7 °F /  10.4 °C 29.67in /  1004.6hPa Calm   2.0mph /  3.2km/h 38% 0.00in /  0mm 0.0 W/m2
21:22 78.3 °F /  25.7 °C 50.5 °F /  10.3 °C 29.67in /  1004.6hPa Calm   2.0mph /  3.2km/h 38% 0.00in /  0mm 0.0 W/m2
21:28 78.1 °F /  25.6 °C 51.1 °F /  10.6 °C 29.67in /  1004.6hPa NE 0.9mph /  1.4km/h 3.0mph /  4.8km/h 39% 0.00in /  0mm 0.0 W/m2
21:34 78.1 °F /  25.6 °C 51.1 °F /  10.6 °C 29.67in /  1004.6hPa Calm   1.0mph /  1.6km/h 39% 0.00in /  0mm 0.0 W/m2
21:40 78.1 °F /  25.6 °C 51.1 °F /  10.6 °C 29.67in /  1004.6hPa Calm   1.0mph /  1.6km/h 39% 0.00in /  0mm 0.0 W/m2
21:46 78.1 °F /  25.6 °C 51.1 °F /  10.6 °C 29.67in /  1004.6hPa Calm   1.0mph /  1.6km/h 39% 0.00in /  0mm 0.0 W/m2
21:52 78.1 °F /  25.6 °C 51.1 °F /  10.6 °C 29.68in /  1005hPa East 0.9mph /  1.4km/h 1.0mph /  1.6km/h 39% 0.00in /  0mm 0.0 W/m2
21:58 78.1 °F /  25.6 °C 51.1 °F /  10.6 °C 29.68in /  1005hPa North 0.9mph /  1.4km/h 1.0mph /  1.6km/h 39% 0.00in /  0mm 0.0 W/m2
22:11 77.7 °F /  25.4 °C 54.7 °F /  12.6 °C 29.69in /  1005.3hPa NW 6.0mph /  9.7km/h 9.0mph /  14.5km/h 45% 0.00in /  0mm 0.0 W/m2
22:17 77.2 °F /  25.1 °C 55.4 °F /  13 °C 29.70in /  1005.6hPa West 4.0mph /  6.4km/h 6.0mph /  9.7km/h 47% 0.00in /  0mm 0.0 W/m2
22:23 75.9 °F /  24.4 °C 55.9 °F /  13.3 °C 29.70in /  1005.6hPa WNW 4.0mph /  6.4km/h 4.0mph /  6.4km/h 50% 0.00in /  0mm 0.0 W/m2
22:29 74.7 °F /  23.7 °C 55.9 °F /  13.3 °C 29.70in /  1005.6hPa WSW 8.1mph /  13km/h 11.0mph /  17.7km/h 52% 0.00in /  0mm 0.0 W/m2
22:35 73.8 °F /  23.2 °C 55.6 °F /  13.1 °C 29.70in /  1005.6hPa WSW 4.0mph /  6.4km/h 11.0mph /  17.7km/h 53% 0.00in /  0mm 0.0 W/m2
22:41 73.2 °F /  22.9 °C 55.6 °F /  13.1 °C 29.70in /  1005.6hPa SW 4.0mph /  6.4km/h 8.0mph /  12.9km/h 54% 0.00in /  0mm 0.0 W/m2
22:47 73.2 °F /  22.9 °C 55.6 °F /  13.1 °C 29.70in /  1005.6hPa SSW 4.9mph /  7.9km/h 6.0mph /  9.7km/h 54% 0.00in /  0mm 0.0 W/m2
22:53 73.0 °F /  22.8 °C 55.4 °F /  13 °C 29.70in /  1005.6hPa West 2.0mph /  3.2km/h 5.0mph /  8km/h 54% 0.00in /  0mm 0.0 W/m2
22:59 72.9 °F /  22.7 °C 55.2 °F /  12.9 °C 29.70in /  1005.6hPa SSW 2.9mph /  4.7km/h 3.0mph /  4.8km/h 54% 0.00in /  0mm 0.0 W/m2
23:05 72.9 °F /  22.7 °C 55.2 °F /  12.9 °C 29.70in /  1005.6hPa Calm   1.0mph /  1.6km/h 54% 0.00in /  0mm 0.0 W/m2
23:11 72.7 °F /  22.6 °C 55.6 °F /  13.1 °C 29.70in /  1005.6hPa West 0.9mph /  1.4km/h 2.0mph /  3.2km/h 55% 0.00in /  0mm 0.0 W/m2
23:18 72.5 °F /  22.5 °C 55.4 °F /  13 °C 29.70in /  1005.6hPa WNW 0.9mph /  1.4km/h 1.0mph /  1.6km/h 55% 0.00in /  0mm 0.0 W/m2
23:24 72.3 °F /  22.4 °C 55.2 °F /  12.9 °C 29.70in /  1005.6hPa Calm   1.0mph /  1.6km/h 55% 0.00in /  0mm 0.0 W/m2
23:30 72.1 °F /  22.3 °C 55.0 °F /  12.8 °C 29.70in /  1005.6hPa Calm   2.0mph /  3.2km/h 55% 0.00in /  0mm 0.0 W/m2
23:36 72.1 °F /  22.3 °C 55.0 °F /  12.8 °C 29.70in /  1005.6hPa WNW 2.9mph /  4.7km/h 3.0mph /  4.8km/h 55% 0.00in /  0mm 0.0 W/m2
23:42 72.0 °F /  22.2 °C 55.4 °F /  13 °C 29.70in /  1005.6hPa WSW 2.0mph /  3.2km/h 5.0mph /  8km/h 56% 0.00in /  0mm 0.0 W/m2
23:48 72.0 °F /  22.2 °C 55.4 °F /  13 °C 29.70in /  1005.6hPa Calm   3.0mph /  4.8km/h 56% 0.00in /  0mm 0.0 W/m2
23:54 72.0 °F /  22.2 °C 55.4 °F /  13 °C 29.70in /  1005.6hPa Calm   2.0mph /  3.2km/h 56% 0.00in /  0mm 0.0 W/m2
Olympia, Windhoek, Namibia
Compliments of Weather Underground - 3 mb